sensor_id;sensor_type;location;lat;lon;timestamp;P1;durP1;ratioP1;P2;durP2;ratioP2
17741;SDS011;8993;51.822;-2.268;2023-04-06T00:04:41;29.98;;;19.17;;
17741;SDS011;8993;51.822;-2.268;2023-04-06T00:09:45;29.34;;;19.39;;
17741;SDS011;8993;51.822;-2.268;2023-04-06T00:14:49;28.79;;;18.76;;
17741;SDS011;8993;51.822;-2.268;2023-04-06T00:19:53;30.54;;;19.67;;
17741;SDS011;8993;51.822;-2.268;2023-04-06T00:24:57;34.85;;;21.13;;
17741;SDS011;8993;51.822;-2.268;2023-04-06T00:30:01;34.05;;;20.74;;
17741;SDS011;8993;51.822;-2.268;2023-04-06T00:35:06;33.64;;;20.29;;
17741;SDS011;8993;51.822;-2.268;2023-04-06T00:40:10;32.59;;;19.58;;
17741;SDS011;8993;51.822;-2.268;2023-04-06T00:45:14;29.43;;;18.58;;
17741;SDS011;8993;51.822;-2.268;2023-04-06T00:50:18;31.13;;;18.80;;
17741;SDS011;8993;51.822;-2.268;2023-04-06T00:55:22;33.79;;;19.21;;
17741;SDS011;8993;51.822;-2.268;2023-04-06T01:00:26;33.05;;;18.99;;
17741;SDS011;8993;51.822;-2.268;2023-04-06T01:05:33;31.93;;;19.07;;
17741;SDS011;8993;51.822;-2.268;2023-04-06T01:10:36;36.03;;;18.97;;
17741;SDS011;8993;51.822;-2.268;2023-04-06T01:15:40;30.96;;;18.44;;
17741;SDS011;8993;51.822;-2.268;2023-04-06T01:20:44;35.50;;;18.62;;
17741;SDS011;8993;51.822;-2.268;2023-04-06T01:25:48;33.45;;;18.18;;
17741;SDS011;8993;51.822;-2.268;2023-04-06T01:30:52;30.64;;;17.39;;
17741;SDS011;8993;51.822;-2.268;2023-04-06T01:35:56;31.65;;;17.75;;
17741;SDS011;8993;51.822;-2.268;2023-04-06T01:41:00;31.99;;;17.18;;
17741;SDS011;8993;51.822;-2.268;2023-04-06T01:46:04;31.47;;;16.73;;
17741;SDS011;8993;51.822;-2.268;2023-04-06T01:51:08;28.96;;;15.63;;
17741;SDS011;8993;51.822;-2.268;2023-04-06T01:56:12;28.28;;;15.41;;
17741;SDS011;8993;51.822;-2.268;2023-04-06T02:01:16;28.34;;;14.79;;
17741;SDS011;8993;51.822;-2.268;2023-04-06T02:06:20;28.38;;;15.36;;
17741;SDS011;8993;51.822;-2.268;2023-04-06T02:11:26;36.30;;;17.23;;
17741;SDS011;8993;51.822;-2.268;2023-04-06T02:16:31;39.95;;;19.13;;
17741;SDS011;8993;51.822;-2.268;2023-04-06T02:21:34;39.83;;;19.62;;
17741;SDS011;8993;51.822;-2.268;2023-04-06T02:26:41;39.07;;;19.04;;
17741;SDS011;8993;51.822;-2.268;2023-04-06T02:31:45;35.09;;;18.49;;
17741;SDS011;8993;51.822;-2.268;2023-04-06T02:36:49;30.74;;;17.18;;
17741;SDS011;8993;51.822;-2.268;2023-04-06T02:41:53;25.06;;;15.57;;
17741;SDS011;8993;51.822;-2.268;2023-04-06T02:46:59;27.01;;;15.16;;
17741;SDS011;8993;51.822;-2.268;2023-04-06T02:52:03;25.99;;;14.39;;
17741;SDS011;8993;51.822;-2.268;2023-04-06T02:57:07;23.05;;;13.63;;
17741;SDS011;8993;51.822;-2.268;2023-04-06T03:02:11;21.99;;;13.66;;
17741;SDS011;8993;51.822;-2.268;2023-04-06T03:07:15;20.26;;;13.06;;
17741;SDS011;8993;51.822;-2.268;2023-04-06T03:12:19;20.12;;;12.36;;
17741;SDS011;8993;51.822;-2.268;2023-04-06T03:17:24;19.96;;;12.04;;
17741;SDS011;8993;51.822;-2.268;2023-04-06T03:22:30;19.78;;;10.83;;
17741;SDS011;8993;51.822;-2.268;2023-04-06T03:27:34;20.15;;;12.36;;
17741;SDS011;8993;51.822;-2.268;2023-04-06T03:32:38;25.99;;;14.15;;
17741;SDS011;8993;51.822;-2.268;2023-04-06T03:37:42;26.34;;;14.66;;
17741;SDS011;8993;51.822;-2.268;2023-04-06T03:42:46;27.88;;;15.50;;
17741;SDS011;8993;51.822;-2.268;2023-04-06T03:47:50;22.28;;;12.19;;
17741;SDS011;8993;51.822;-2.268;2023-04-06T03:52:54;21.56;;;12.00;;
17741;SDS011;8993;51.822;-2.268;2023-04-06T03:57:58;23.79;;;11.64;;
17741;SDS011;8993;51.822;-2.268;2023-04-06T04:03:02;28.84;;;12.29;;
17741;SDS011;8993;51.822;-2.268;2023-04-06T04:08:06;29.17;;;12.15;;
17741;SDS011;8993;51.822;-2.268;2023-04-06T04:13:10;24.64;;;10.84;;
17741;SDS011;8993;51.822;-2.268;2023-04-06T04:18:14;21.28;;;9.87;;
17741;SDS011;8993;51.822;-2.268;2023-04-06T04:23:18;23.45;;;9.95;;
17741;SDS011;8993;51.822;-2.268;2023-04-06T04:28:22;18.49;;;9.53;;
17741;SDS011;8993;51.822;-2.268;2023-04-06T04:33:26;12.92;;;6.70;;
17741;SDS011;8993;51.822;-2.268;2023-04-06T04:38:30;10.50;;;5.51;;
17741;SDS011;8993;51.822;-2.268;2023-04-06T04:43:37;12.87;;;5.43;;
17741;SDS011;8993;51.822;-2.268;2023-04-06T04:48:41;12.29;;;5.39;;
17741;SDS011;8993;51.822;-2.268;2023-04-06T04:53:45;10.93;;;4.93;;
17741;SDS011;8993;51.822;-2.268;2023-04-06T04:58:49;15.89;;;6.53;;
17741;SDS011;8993;51.822;-2.268;2023-04-06T05:03:53;15.43;;;6.94;;
17741;SDS011;8993;51.822;-2.268;2023-04-06T05:08:57;13.74;;;6.71;;
17741;SDS011;8993;51.822;-2.268;2023-04-06T05:14:01;22.73;;;10.34;;
17741;SDS011;8993;51.822;-2.268;2023-04-06T05:19:05;20.88;;;7.79;;
17741;SDS011;8993;51.822;-2.268;2023-04-06T05:24:10;21.60;;;6.19;;
17741;SDS011;8993;51.822;-2.268;2023-04-06T05:29:13;20.02;;;4.91;;
17741;SDS011;8993;51.822;-2.268;2023-04-06T05:34:17;21.91;;;4.38;;
17741;SDS011;8993;51.822;-2.268;2023-04-06T05:39:21;21.34;;;4.32;;
17741;SDS011;8993;51.822;-2.268;2023-04-06T05:44:25;24.58;;;4.16;;
17741;SDS011;8993;51.822;-2.268;2023-04-06T05:49:29;24.25;;;4.37;;
17741;SDS011;8993;51.822;-2.268;2023-04-06T05:54:33;22.79;;;3.95;;
17741;SDS011;8993;51.822;-2.268;2023-04-06T05:59:37;28.24;;;3.86;;
17741;SDS011;8993;51.822;-2.268;2023-04-06T06:04:42;21.87;;;3.53;;
17741;SDS011;8993;51.822;-2.268;2023-04-06T06:09:45;24.80;;;3.59;;
17741;SDS011;8993;51.822;-2.268;2023-04-06T06:14:50;24.39;;;3.84;;
17741;SDS011;8993;51.822;-2.268;2023-04-06T06:19:54;28.29;;;3.93;;
17741;SDS011;8993;51.822;-2.268;2023-04-06T06:24:58;24.01;;;4.30;;
17741;SDS011;8993;51.822;-2.268;2023-04-06T06:30:02;27.27;;;5.13;;
17741;SDS011;8993;51.822;-2.268;2023-04-06T06:35:06;25.84;;;4.36;;
17741;SDS011;8993;51.822;-2.268;2023-04-06T06:40:10;24.04;;;4.17;;
17741;SDS011;8993;51.822;-2.268;2023-04-06T06:45:14;26.55;;;4.48;;
17741;SDS011;8993;51.822;-2.268;2023-04-06T06:50:18;25.01;;;4.20;;
17741;SDS011;8993;51.822;-2.268;2023-04-06T06:55:22;28.55;;;4.58;;
17741;SDS011;8993;51.822;-2.268;2023-04-06T07:00:28;23.63;;;4.09;;
17741;SDS011;8993;51.822;-2.268;2023-04-06T07:05:32;29.08;;;4.60;;
17741;SDS011;8993;51.822;-2.268;2023-04-06T07:10:37;28.89;;;5.46;;
17741;SDS011;8993;51.822;-2.268;2023-04-06T07:15:41;28.44;;;5.63;;
17741;SDS011;8993;51.822;-2.268;2023-04-06T07:20:47;20.56;;;4.58;;
17741;SDS011;8993;51.822;-2.268;2023-04-06T07:25:51;16.79;;;3.38;;
17741;SDS011;8993;51.822;-2.268;2023-04-06T07:30:55;11.55;;;2.71;;
17741;SDS011;8993;51.822;-2.268;2023-04-06T07:35:59;12.95;;;2.68;;
17741;SDS011;8993;51.822;-2.268;2023-04-06T07:41:03;11.69;;;2.72;;
17741;SDS011;8993;51.822;-2.268;2023-04-06T07:46:07;14.06;;;2.75;;
17741;SDS011;8993;51.822;-2.268;2023-04-06T07:51:11;12.16;;;2.38;;
17741;SDS011;8993;51.822;-2.268;2023-04-06T07:56:15;10.35;;;2.35;;
17741;SDS011;8993;51.822;-2.268;2023-04-06T08:01:19;8.94;;;1.89;;
17741;SDS011;8993;51.822;-2.268;2023-04-06T08:06:23;7.44;;;1.66;;
17741;SDS011;8993;51.822;-2.268;2023-04-06T08:11:27;6.63;;;1.75;;
17741;SDS011;8993;51.822;-2.268;2023-04-06T08:16:32;6.71;;;1.24;;
17741;SDS011;8993;51.822;-2.268;2023-04-06T08:21:36;6.48;;;0.96;;
17741;SDS011;8993;51.822;-2.268;2023-04-06T08:26:40;5.31;;;0.71;;
17741;SDS011;8993;51.822;-2.268;2023-04-06T08:31:44;4.27;;;0.72;;
17741;SDS011;8993;51.822;-2.268;2023-04-06T08:36:48;6.25;;;0.75;;
17741;SDS011;8993;51.822;-2.268;2023-04-06T08:41:52;5.43;;;0.77;;
17741;SDS011;8993;51.822;-2.268;2023-04-06T08:46:56;4.41;;;0.80;;
17741;SDS011;8993;51.822;-2.268;2023-04-06T08:52:03;5.22;;;0.75;;
17741;SDS011;8993;51.822;-2.268;2023-04-06T08:57:07;3.85;;;0.63;;
17741;SDS011;8993;51.822;-2.268;2023-04-06T09:02:12;4.60;;;0.68;;
17741;SDS011;8993;51.822;-2.268;2023-04-06T09:07:15;3.94;;;0.55;;
17741;SDS011;8993;51.822;-2.268;2023-04-06T09:12:22;4.47;;;0.63;;
17741;SDS011;8993;51.822;-2.268;2023-04-06T09:17:24;3.67;;;0.56;;
17741;SDS011;8993;51.822;-2.268;2023-04-06T09:22:34;2.16;;;0.49;;
17741;SDS011;8993;51.822;-2.268;2023-04-06T09:27:31;3.91;;;0.47;;
17741;SDS011;8993;51.822;-2.268;2023-04-06T09:37:39;3.02;;;0.47;;
17741;SDS011;8993;51.822;-2.268;2023-04-06T09:42:44;2.50;;;0.45;;
17741;SDS011;8993;51.822;-2.268;2023-04-06T09:47:47;4.11;;;0.46;;
17741;SDS011;8993;51.822;-2.268;2023-04-06T09:52:52;3.58;;;0.49;;
17741;SDS011;8993;51.822;-2.268;2023-04-06T09:57:58;2.87;;;0.53;;
17741;SDS011;8993;51.822;-2.268;2023-04-06T10:03:02;2.72;;;0.50;;
17741;SDS011;8993;51.822;-2.268;2023-04-06T10:08:05;3.31;;;0.50;;
17741;SDS011;8993;51.822;-2.268;2023-04-06T10:13:08;3.51;;;0.57;;
17741;SDS011;8993;51.822;-2.268;2023-04-06T10:18:12;5.63;;;0.64;;
17741;SDS011;8993;51.822;-2.268;2023-04-06T10:23:19;4.48;;;0.69;;
17741;SDS011;8993;51.822;-2.268;2023-04-06T10:28:20;3.14;;;0.54;;
17741;SDS011;8993;51.822;-2.268;2023-04-06T10:33:24;3.71;;;0.52;;
17741;SDS011;8993;51.822;-2.268;2023-04-06T10:38:36;3.22;;;0.57;;
17741;SDS011;8993;51.822;-2.268;2023-04-06T10:43:33;3.76;;;0.70;;
17741;SDS011;8993;51.822;-2.268;2023-04-06T10:48:40;5.35;;;0.63;;
17741;SDS011;8993;51.822;-2.268;2023-04-06T10:53:44;3.42;;;0.59;;
17741;SDS011;8993;51.822;-2.268;2023-04-06T10:58:48;2.81;;;0.43;;
17741;SDS011;8993;51.822;-2.268;2023-04-06T11:03:52;2.33;;;0.24;;
17741;SDS011;8993;51.822;-2.268;2023-04-06T11:08:58;1.27;;;0.24;;
17741;SDS011;8993;51.822;-2.268;2023-04-06T11:14:02;1.51;;;0.28;;
17741;SDS011;8993;51.822;-2.268;2023-04-06T11:19:05;1.69;;;0.25;;
17741;SDS011;8993;51.822;-2.268;2023-04-06T11:24:10;1.21;;;0.34;;
17741;SDS011;8993;51.822;-2.268;2023-04-06T11:29:15;2.29;;;0.42;;
17741;SDS011;8993;51.822;-2.268;2023-04-06T11:34:21;3.68;;;0.51;;
17741;SDS011;8993;51.822;-2.268;2023-04-06T11:39:24;2.89;;;0.47;;
17741;SDS011;8993;51.822;-2.268;2023-04-06T11:44:29;1.86;;;0.53;;
17741;SDS011;8993;51.822;-2.268;2023-04-06T11:49:33;4.78;;;0.66;;
17741;SDS011;8993;51.822;-2.268;2023-04-06T11:54:37;2.55;;;0.54;;
17741;SDS011;8993;51.822;-2.268;2023-04-06T11:59:40;2.45;;;0.49;;
17741;SDS011;8993;51.822;-2.268;2023-04-06T12:04:45;2.38;;;0.53;;
17741;SDS011;8993;51.822;-2.268;2023-04-06T12:09:49;2.14;;;0.48;;
17741;SDS011;8993;51.822;-2.268;2023-04-06T12:14:55;1.77;;;0.42;;
17741;SDS011;8993;51.822;-2.268;2023-04-06T12:19:59;1.93;;;0.45;;
17741;SDS011;8993;51.822;-2.268;2023-04-06T12:25:04;1.21;;;0.46;;
17741;SDS011;8993;51.822;-2.268;2023-04-06T12:30:08;1.79;;;0.46;;
17741;SDS011;8993;51.822;-2.268;2023-04-06T12:35:12;1.33;;;0.44;;
17741;SDS011;8993;51.822;-2.268;2023-04-06T12:40:18;3.77;;;1.21;;
17741;SDS011;8993;51.822;-2.268;2023-04-06T12:45:22;1.70;;;0.35;;
17741;SDS011;8993;51.822;-2.268;2023-04-06T12:50:26;2.70;;;0.43;;
17741;SDS011;8993;51.822;-2.268;2023-04-06T12:55:31;0.99;;;0.16;;
17741;SDS011;8993;51.822;-2.268;2023-04-06T13:00:35;0.30;;;0.14;;
17741;SDS011;8993;51.822;-2.268;2023-04-06T13:05:43;0.91;;;0.16;;
17741;SDS011;8993;51.822;-2.268;2023-04-06T13:10:43;0.71;;;0.20;;
17741;SDS011;8993;51.822;-2.268;2023-04-06T13:15:47;0.64;;;0.10;;
17741;SDS011;8993;51.822;-2.268;2023-04-06T13:20:51;0.51;;;0.10;;
17741;SDS011;8993;51.822;-2.268;2023-04-06T13:25:57;1.15;;;0.13;;
17741;SDS011;8993;51.822;-2.268;2023-04-06T13:31:00;1.03;;;0.22;;
17741;SDS011;8993;51.822;-2.268;2023-04-06T13:36:04;1.10;;;0.25;;
17741;SDS011;8993;51.822;-2.268;2023-04-06T13:41:08;0.94;;;0.23;;
17741;SDS011;8993;51.822;-2.268;2023-04-06T13:46:12;0.77;;;0.26;;
17741;SDS011;8993;51.822;-2.268;2023-04-06T13:51:16;2.09;;;0.21;;
17741;SDS011;8993;51.822;-2.268;2023-04-06T13:56:20;1.51;;;0.22;;
17741;SDS011;8993;51.822;-2.268;2023-04-06T14:01:24;1.08;;;0.25;;
17741;SDS011;8993;51.822;-2.268;2023-04-06T14:06:29;2.22;;;0.29;;
17741;SDS011;8993;51.822;-2.268;2023-04-06T14:11:33;1.56;;;0.29;;
17741;SDS011;8993;51.822;-2.268;2023-04-06T14:16:37;1.07;;;0.23;;
17741;SDS011;8993;51.822;-2.268;2023-04-06T14:21:41;2.06;;;0.33;;
17741;SDS011;8993;51.822;-2.268;2023-04-06T14:26:45;1.72;;;0.34;;
17741;SDS011;8993;51.822;-2.268;2023-04-06T14:31:50;1.95;;;0.37;;
17741;SDS011;8993;51.822;-2.268;2023-04-06T14:36:54;2.26;;;0.46;;
17741;SDS011;8993;51.822;-2.268;2023-04-06T14:41:58;1.49;;;0.35;;
17741;SDS011;8993;51.822;-2.268;2023-04-06T14:47:02;2.98;;;0.29;;
17741;SDS011;8993;51.822;-2.268;2023-04-06T14:52:08;2.95;;;0.48;;
17741;SDS011;8993;51.822;-2.268;2023-04-06T14:57:13;2.19;;;0.32;;
17741;SDS011;8993;51.822;-2.268;2023-04-06T15:02:17;2.41;;;0.45;;
17741;SDS011;8993;51.822;-2.268;2023-04-06T15:07:21;2.37;;;0.38;;
17741;SDS011;8993;51.822;-2.268;2023-04-06T15:12:25;2.69;;;0.45;;
17741;SDS011;8993;51.822;-2.268;2023-04-06T15:17:31;1.27;;;0.37;;
17741;SDS011;8993;51.822;-2.268;2023-04-06T15:22:35;2.56;;;0.34;;
17741;SDS011;8993;51.822;-2.268;2023-04-06T15:27:38;2.37;;;0.38;;
17741;SDS011;8993;51.822;-2.268;2023-04-06T15:32:51;2.29;;;0.45;;
17741;SDS011;8993;51.822;-2.268;2023-04-06T15:37:49;2.19;;;0.36;;
17741;SDS011;8993;51.822;-2.268;2023-04-06T15:42:53;4.45;;;0.48;;
17741;SDS011;8993;51.822;-2.268;2023-04-06T15:47:57;3.42;;;0.42;;
17741;SDS011;8993;51.822;-2.268;2023-04-06T15:53:02;2.49;;;0.36;;
17741;SDS011;8993;51.822;-2.268;2023-04-06T15:58:06;2.27;;;0.29;;
17741;SDS011;8993;51.822;-2.268;2023-04-06T16:03:10;2.77;;;0.42;;
17741;SDS011;8993;51.822;-2.268;2023-04-06T16:08:16;2.18;;;0.34;;
17741;SDS011;8993;51.822;-2.268;2023-04-06T16:13:20;2.24;;;0.37;;
17741;SDS011;8993;51.822;-2.268;2023-04-06T16:18:25;2.07;;;0.45;;
17741;SDS011;8993;51.822;-2.268;2023-04-06T16:23:28;2.47;;;0.47;;
17741;SDS011;8993;51.822;-2.268;2023-04-06T16:28:36;0.64;;;0.14;;
17741;SDS011;8993;51.822;-2.268;2023-04-06T16:33:40;1.81;;;0.11;;
17741;SDS011;8993;51.822;-2.268;2023-04-06T16:38:44;0.67;;;0.16;;
17741;SDS011;8993;51.822;-2.268;2023-04-06T16:43:48;1.43;;;0.17;;
17741;SDS011;8993;51.822;-2.268;2023-04-06T16:48:52;0.58;;;0.20;;
17741;SDS011;8993;51.822;-2.268;2023-04-06T16:53:56;0.71;;;0.20;;
17741;SDS011;8993;51.822;-2.268;2023-04-06T16:59:00;0.57;;;0.20;;
17741;SDS011;8993;51.822;-2.268;2023-04-06T17:04:04;1.44;;;0.24;;
17741;SDS011;8993;51.822;-2.268;2023-04-06T17:09:08;1.16;;;0.23;;
17741;SDS011;8993;51.822;-2.268;2023-04-06T17:14:12;1.36;;;0.27;;
17741;SDS011;8993;51.822;-2.268;2023-04-06T17:19:17;1.39;;;0.23;;
17741;SDS011;8993;51.822;-2.268;2023-04-06T17:24:21;1.02;;;0.25;;
17741;SDS011;8993;51.822;-2.268;2023-04-06T17:29:25;0.36;;;0.17;;
17741;SDS011;8993;51.822;-2.268;2023-04-06T17:34:29;0.48;;;0.14;;
17741;SDS011;8993;51.822;-2.268;2023-04-06T17:39:35;0.76;;;0.16;;
17741;SDS011;8993;51.822;-2.268;2023-04-06T17:44:39;0.95;;;0.12;;
17741;SDS011;8993;51.822;-2.268;2023-04-06T17:49:43;0.92;;;0.16;;
17741;SDS011;8993;51.822;-2.268;2023-04-06T17:54:47;1.14;;;0.20;;
17741;SDS011;8993;51.822;-2.268;2023-04-06T17:59:52;0.74;;;0.17;;
17741;SDS011;8993;51.822;-2.268;2023-04-06T18:04:56;0.82;;;0.27;;
17741;SDS011;8993;51.822;-2.268;2023-04-06T18:10:03;1.40;;;0.27;;
17741;SDS011;8993;51.822;-2.268;2023-04-06T18:15:07;1.48;;;0.28;;
17741;SDS011;8993;51.822;-2.268;2023-04-06T18:20:11;1.22;;;0.22;;
17741;SDS011;8993;51.822;-2.268;2023-04-06T18:25:15;1.19;;;0.33;;
17741;SDS011;8993;51.822;-2.268;2023-04-06T18:30:19;1.07;;;0.35;;
17741;SDS011;8993;51.822;-2.268;2023-04-06T18:35:23;2.10;;;0.39;;
17741;SDS011;8993;51.822;-2.268;2023-04-06T18:40:29;2.41;;;0.49;;
17741;SDS011;8993;51.822;-2.268;2023-04-06T18:45:32;1.25;;;0.42;;
17741;SDS011;8993;51.822;-2.268;2023-04-06T18:50:36;2.19;;;0.50;;
17741;SDS011;8993;51.822;-2.268;2023-04-06T18:55:40;1.37;;;0.53;;
17741;SDS011;8993;51.822;-2.268;2023-04-06T19:00:44;1.39;;;0.49;;
17741;SDS011;8993;51.822;-2.268;2023-04-06T19:05:48;2.74;;;0.59;;
17741;SDS011;8993;51.822;-2.268;2023-04-06T19:10:53;1.35;;;0.49;;
17741;SDS011;8993;51.822;-2.268;2023-04-06T19:15:57;2.30;;;0.56;;
17741;SDS011;8993;51.822;-2.268;2023-04-06T19:21:01;2.27;;;0.79;;
17741;SDS011;8993;51.822;-2.268;2023-04-06T19:26:08;5.67;;;1.54;;
17741;SDS011;8993;51.822;-2.268;2023-04-06T19:31:10;3.00;;;1.48;;
17741;SDS011;8993;51.822;-2.268;2023-04-06T19:36:14;3.32;;;1.57;;
17741;SDS011;8993;51.822;-2.268;2023-04-06T19:41:19;5.17;;;1.81;;
17741;SDS011;8993;51.822;-2.268;2023-04-06T19:46:23;6.20;;;2.40;;
17741;SDS011;8993;51.822;-2.268;2023-04-06T19:51:29;4.04;;;1.61;;
17741;SDS011;8993;51.822;-2.268;2023-04-06T19:56:32;3.43;;;1.33;;
17741;SDS011;8993;51.822;-2.268;2023-04-06T20:01:36;3.34;;;0.99;;
17741;SDS011;8993;51.822;-2.268;2023-04-06T20:06:40;2.87;;;0.91;;
17741;SDS011;8993;51.822;-2.268;2023-04-06T20:11:45;1.74;;;0.84;;
17741;SDS011;8993;51.822;-2.268;2023-04-06T20:16:49;2.62;;;1.06;;
17741;SDS011;8993;51.822;-2.268;2023-04-06T20:21:53;2.73;;;1.26;;
17741;SDS011;8993;51.822;-2.268;2023-04-06T20:26:57;3.74;;;1.30;;
17741;SDS011;8993;51.822;-2.268;2023-04-06T20:32:01;2.42;;;1.17;;
17741;SDS011;8993;51.822;-2.268;2023-04-06T20:37:05;2.95;;;1.14;;
17741;SDS011;8993;51.822;-2.268;2023-04-06T20:42:12;2.60;;;1.15;;
17741;SDS011;8993;51.822;-2.268;2023-04-06T20:47:18;3.04;;;1.55;;
17741;SDS011;8993;51.822;-2.268;2023-04-06T20:52:22;2.95;;;1.45;;
17741;SDS011;8993;51.822;-2.268;2023-04-06T20:57:26;4.72;;;2.23;;
17741;SDS011;8993;51.822;-2.268;2023-04-06T21:02:31;6.12;;;2.73;;
17741;SDS011;8993;51.822;-2.268;2023-04-06T21:07:35;3.93;;;2.10;;
17741;SDS011;8993;51.822;-2.268;2023-04-06T21:12:39;3.58;;;1.91;;
17741;SDS011;8993;51.822;-2.268;2023-04-06T21:17:43;3.36;;;2.10;;
17741;SDS011;8993;51.822;-2.268;2023-04-06T21:22:47;4.21;;;2.14;;
17741;SDS011;8993;51.822;-2.268;2023-04-06T21:27:52;7.18;;;4.10;;
17741;SDS011;8993;51.822;-2.268;2023-04-06T21:32:56;5.83;;;3.55;;
17741;SDS011;8993;51.822;-2.268;2023-04-06T21:38:00;6.30;;;3.76;;
17741;SDS011;8993;51.822;-2.268;2023-04-06T21:43:04;6.16;;;3.25;;
17741;SDS011;8993;51.822;-2.268;2023-04-06T21:48:08;6.25;;;3.52;;
17741;SDS011;8993;51.822;-2.268;2023-04-06T21:53:12;6.81;;;3.92;;
17741;SDS011;8993;51.822;-2.268;2023-04-06T21:58:16;4.61;;;3.27;;
17741;SDS011;8993;51.822;-2.268;2023-04-06T22:03:21;5.64;;;3.52;;
17741;SDS011;8993;51.822;-2.268;2023-04-06T22:08:25;5.89;;;3.79;;
17741;SDS011;8993;51.822;-2.268;2023-04-06T22:13:29;7.18;;;4.01;;
17741;SDS011;8993;51.822;-2.268;2023-04-06T22:18:34;7.70;;;4.30;;
17741;SDS011;8993;51.822;-2.268;2023-04-06T22:23:40;4.83;;;2.86;;
17741;SDS011;8993;51.822;-2.268;2023-04-06T22:28:44;5.75;;;3.53;;
17741;SDS011;8993;51.822;-2.268;2023-04-06T22:33:48;5.74;;;3.64;;
17741;SDS011;8993;51.822;-2.268;2023-04-06T22:38:52;5.65;;;3.93;;
17741;SDS011;8993;51.822;-2.268;2023-04-06T22:43:56;10.51;;;6.06;;
17741;SDS011;8993;51.822;-2.268;2023-04-06T22:49:00;7.40;;;4.08;;
17741;SDS011;8993;51.822;-2.268;2023-04-06T22:54:05;7.56;;;4.15;;
17741;SDS011;8993;51.822;-2.268;2023-04-06T22:59:09;5.73;;;3.23;;
17741;SDS011;8993;51.822;-2.268;2023-04-06T23:04:15;8.45;;;4.71;;
17741;SDS011;8993;51.822;-2.268;2023-04-06T23:09:19;6.34;;;3.63;;
17741;SDS011;8993;51.822;-2.268;2023-04-06T23:14:24;5.32;;;3.16;;
17741;SDS011;8993;51.822;-2.268;2023-04-06T23:19:30;8.86;;;4.17;;
17741;SDS011;8993;51.822;-2.268;2023-04-06T23:24:35;10.93;;;4.75;;
17741;SDS011;8993;51.822;-2.268;2023-04-06T23:29:39;11.65;;;4.83;;
17741;SDS011;8993;51.822;-2.268;2023-04-06T23:34:43;8.94;;;4.59;;
17741;SDS011;8993;51.822;-2.268;2023-04-06T23:39:47;6.90;;;3.26;;
17741;SDS011;8993;51.822;-2.268;2023-04-06T23:44:51;8.22;;;3.01;;
17741;SDS011;8993;51.822;-2.268;2023-04-06T23:49:55;10.01;;;5.31;;
17741;SDS011;8993;51.822;-2.268;2023-04-06T23:54:59;7.86;;;3.63;;
